sensor_id;sensor_type;location;lat;lon;timestamp;pressure;altitude;pressure_sealevel;temperature;humidity
23172;BME280;11754;42.664;23.594;2023-08-17T00:02:13;95476.34;;;21.39;73.99
23172;BME280;11754;42.664;23.594;2023-08-17T00:04:39;95481.72;;;21.39;74.20
23172;BME280;11754;42.664;23.594;2023-08-17T00:07:05;95479.31;;;21.30;74.31
23172;BME280;11754;42.664;23.594;2023-08-17T00:09:30;95483.06;;;21.29;74.65
23172;BME280;11754;42.664;23.594;2023-08-17T00:11:56;95487.25;;;21.25;74.86
23172;BME280;11754;42.664;23.594;2023-08-17T00:14:21;95486.09;;;21.21;74.79
23172;BME280;11754;42.664;23.594;2023-08-17T00:16:49;95477.09;;;21.16;75.04
23172;BME280;11754;42.664;23.594;2023-08-17T00:19:15;95480.84;;;21.15;74.83
23172;BME280;11754;42.664;23.594;2023-08-17T00:21:40;95469.06;;;21.04;75.16
23172;BME280;11754;42.664;23.594;2023-08-17T00:24:06;95480.13;;;21.07;75.52
23172;BME280;11754;42.664;23.594;2023-08-17T00:26:31;95479.78;;;21.04;75.53
23172;BME280;11754;42.664;23.594;2023-08-17T00:28:57;95479.78;;;21.04;75.62
23172;BME280;11754;42.664;23.594;2023-08-17T00:31:22;95480.34;;;21.06;75.58
23172;BME280;11754;42.664;23.594;2023-08-17T00:33:48;95477.91;;;21.04;75.35
23172;BME280;11754;42.664;23.594;2023-08-17T00:36:13;95478.38;;;21.01;75.30
23172;BME280;11754;42.664;23.594;2023-08-17T00:38:39;95475.34;;;20.98;75.23
23172;BME280;11754;42.664;23.594;2023-08-17T00:41:04;95475.22;;;20.93;74.98
23172;BME280;11754;42.664;23.594;2023-08-17T00:43:30;95480.09;;;20.84;75.03
23172;BME280;11754;42.664;23.594;2023-08-17T00:45:55;95477.28;;;20.79;75.42
23172;BME280;11754;42.664;23.594;2023-08-17T00:48:21;95474.13;;;20.70;75.32
23172;BME280;11754;42.664;23.594;2023-08-17T00:50:48;95476.22;;;20.68;75.38
23172;BME280;11754;42.664;23.594;2023-08-17T00:53:22;95468.06;;;20.63;75.68
23172;BME280;11754;42.664;23.594;2023-08-17T00:55:48;95473.16;;;20.53;76.58
23172;BME280;11754;42.664;23.594;2023-08-17T00:58:14;95468.66;;;20.47;76.93
23172;BME280;11754;42.664;23.594;2023-08-17T01:00:40;95479.38;;;20.47;77.02
23172;BME280;11754;42.664;23.594;2023-08-17T01:03:06;95456.50;;;20.32;77.27
23172;BME280;11754;42.664;23.594;2023-08-17T01:05:32;95474.09;;;20.40;77.35
23172;BME280;11754;42.664;23.594;2023-08-17T01:07:58;95467.56;;;20.36;77.45
23172;BME280;11754;42.664;23.594;2023-08-17T01:10:34;95469.00;;;20.38;77.36
23172;BME280;11754;42.664;23.594;2023-08-17T01:13:09;95463.19;;;20.42;77.40
23172;BME280;11754;42.664;23.594;2023-08-17T01:15:42;95467.56;;;20.36;77.45
23172;BME280;11754;42.664;23.594;2023-08-17T01:18:18;95470.00;;;20.37;77.32
23172;BME280;11754;42.664;23.594;2023-08-17T01:20:50;95475.38;;;20.37;77.49
23172;BME280;11754;42.664;23.594;2023-08-17T01:23:15;95473.19;;;20.34;77.29
23172;BME280;11754;42.664;23.594;2023-08-17T01:25:41;95468.47;;;20.30;77.43
23172;BME280;11754;42.664;23.594;2023-08-17T01:28:09;95470.94;;;20.31;77.31
23172;BME280;11754;42.664;23.594;2023-08-17T01:30:42;95464.53;;;20.32;76.91
23172;BME280;11754;42.664;23.594;2023-08-17T01:33:10;95473.53;;;20.38;76.70
23172;BME280;11754;42.664;23.594;2023-08-17T01:35:45;95475.50;;;20.31;76.72
23172;BME280;11754;42.664;23.594;2023-08-17T01:38:16;95471.41;;;20.28;76.40
23172;BME280;11754;42.664;23.594;2023-08-17T01:40:45;95469.78;;;20.27;76.52
23172;BME280;11754;42.664;23.594;2023-08-17T01:43:11;95452.38;;;20.18;76.57
23172;BME280;11754;42.664;23.594;2023-08-17T01:45:37;95470.22;;;20.24;76.29
23172;BME280;11754;42.664;23.594;2023-08-17T01:48:03;95471.72;;;20.20;76.34
23172;BME280;11754;42.664;23.594;2023-08-17T01:50:28;95466.94;;;20.22;76.11
23172;BME280;11754;42.664;23.594;2023-08-17T01:52:54;95470.53;;;20.16;76.17
23172;BME280;11754;42.664;23.594;2023-08-17T01:55:21;95461.16;;;20.07;76.38
23172;BME280;11754;42.664;23.594;2023-08-17T01:57:47;95462.66;;;20.03;76.57
23172;BME280;11754;42.664;23.594;2023-08-17T02:00:13;95462.66;;;20.03;76.67
23172;BME280;11754;42.664;23.594;2023-08-17T02:02:39;95465.09;;;20.04;76.47
23172;BME280;11754;42.664;23.594;2023-08-17T02:05:04;95462.06;;;20.01;76.26
23172;BME280;11754;42.664;23.594;2023-08-17T02:07:30;95468.09;;;19.96;76.28
23172;BME280;11754;42.664;23.594;2023-08-17T02:09:55;95456.66;;;19.89;76.50
23172;BME280;11754;42.664;23.594;2023-08-17T02:12:23;95467.44;;;19.82;76.92
23172;BME280;11754;42.664;23.594;2023-08-17T02:14:48;95460.91;;;19.78;76.79
23172;BME280;11754;42.664;23.594;2023-08-17T02:17:14;95459.97;;;19.73;76.91
23172;BME280;11754;42.664;23.594;2023-08-17T02:19:42;95462.09;;;19.64;77.36
23172;BME280;11754;42.664;23.594;2023-08-17T02:22:12;95465.56;;;19.64;77.46
23172;BME280;11754;42.664;23.594;2023-08-17T02:24:38;95459.41;;;19.64;77.53
23172;BME280;11754;42.664;23.594;2023-08-17T02:27:03;95466.41;;;19.65;77.42
23172;BME280;11754;42.664;23.594;2023-08-17T02:29:29;95465.38;;;19.66;77.45
23172;BME280;11754;42.664;23.594;2023-08-17T02:31:55;95463.31;;;19.61;77.32
23172;BME280;11754;42.664;23.594;2023-08-17T02:34:20;95462.94;;;19.58;76.95
23172;BME280;11754;42.664;23.594;2023-08-17T02:36:45;95470.38;;;19.56;76.94
23172;BME280;11754;42.664;23.594;2023-08-17T02:39:11;95464.44;;;19.54;77.05
23172;BME280;11754;42.664;23.594;2023-08-17T02:41:37;95456.19;;;19.55;76.63
23172;BME280;11754;42.664;23.594;2023-08-17T02:44:03;95454.16;;;19.51;76.64
23172;BME280;11754;42.664;23.594;2023-08-17T02:46:28;95458.50;;;19.52;76.72
23172;BME280;11754;42.664;23.594;2023-08-17T02:48:54;95458.34;;;19.47;76.97
23172;BME280;11754;42.664;23.594;2023-08-17T02:51:19;95435.63;;;19.37;77.26
23172;BME280;11754;42.664;23.594;2023-08-17T02:53:45;95458.34;;;19.47;77.47
23172;BME280;11754;42.664;23.594;2023-08-17T02:56:10;95454.25;;;19.44;77.42
23172;BME280;11754;42.664;23.594;2023-08-17T02:58:38;95462.94;;;19.39;77.33
23172;BME280;11754;42.664;23.594;2023-08-17T03:01:06;95456.78;;;19.39;77.58
23172;BME280;11754;42.664;23.594;2023-08-17T03:03:32;95457.00;;;19.37;77.59
23172;BME280;11754;42.664;23.594;2023-08-17T03:05:57;95445.38;;;19.25;77.57
23172;BME280;11754;42.664;23.594;2023-08-17T03:08:23;95458.75;;;19.25;77.77
23172;BME280;11754;42.664;23.594;2023-08-17T03:10:48;95466.78;;;19.25;77.57
23172;BME280;11754;42.664;23.594;2023-08-17T03:13:13;95462.31;;;19.19;77.65
23172;BME280;11754;42.664;23.594;2023-08-17T03:15:39;95469.41;;;19.07;77.63
23172;BME280;11754;42.664;23.594;2023-08-17T03:18:05;95465.84;;;18.94;77.86
23172;BME280;11754;42.664;23.594;2023-08-17T03:20:31;95459.72;;;18.87;78.00
23172;BME280;11754;42.664;23.594;2023-08-17T03:22:56;95464.44;;;18.85;78.14
23172;BME280;11754;42.664;23.594;2023-08-17T03:25:22;95467.84;;;18.74;78.65
23172;BME280;11754;42.664;23.594;2023-08-17T03:27:47;95453.72;;;18.60;78.61
23172;BME280;11754;42.664;23.594;2023-08-17T03:30:12;95466.44;;;18.65;78.90
23172;BME280;11754;42.664;23.594;2023-08-17T03:32:38;95467.88;;;18.61;79.10
23172;BME280;11754;42.664;23.594;2023-08-17T03:35:04;95465.69;;;18.58;79.39
23172;BME280;11754;42.664;23.594;2023-08-17T03:37:29;95457.91;;;18.49;79.13
23172;BME280;11754;42.664;23.594;2023-08-17T03:39:55;95469.75;;;18.60;79.24
23172;BME280;11754;42.664;23.594;2023-08-17T03:42:20;95464.91;;;18.51;79.35
23172;BME280;11754;42.664;23.594;2023-08-17T03:44:46;95473.94;;;18.49;79.35
23172;BME280;11754;42.664;23.594;2023-08-17T03:47:11;95471.09;;;18.44;79.58
23172;BME280;11754;42.664;23.594;2023-08-17T03:49:36;95469.47;;;18.43;79.52
23172;BME280;11754;42.664;23.594;2023-08-17T03:52:02;95478.06;;;18.45;79.62
23172;BME280;11754;42.664;23.594;2023-08-17T03:54:27;95470.66;;;18.47;79.73
23172;BME280;11754;42.664;23.594;2023-08-17T03:56:53;95473.75;;;18.44;79.70
23172;BME280;11754;42.664;23.594;2023-08-17T03:59:18;95472.13;;;18.43;79.81
23172;BME280;11754;42.664;23.594;2023-08-17T04:01:43;95478.88;;;18.46;79.75
23172;BME280;11754;42.664;23.594;2023-08-17T04:04:09;95477.25;;;18.45;79.99
23172;BME280;11754;42.664;23.594;2023-08-17T04:06:34;95480.31;;;18.48;79.91
23172;BME280;11754;42.664;23.594;2023-08-17T04:09:00;95473.94;;;18.49;80.13
23172;BME280;11754;42.664;23.594;2023-08-17T04:11:26;95459.59;;;18.44;79.56
23172;BME280;11754;42.664;23.594;2023-08-17T04:13:51;95471.41;;;18.61;79.63
23172;BME280;11754;42.664;23.594;2023-08-17T04:16:17;95479.81;;;18.65;79.53
23172;BME280;11754;42.664;23.594;2023-08-17T04:18:42;95478.94;;;18.71;79.27
23172;BME280;11754;42.664;23.594;2023-08-17T04:21:08;95474.00;;;18.68;78.95
23172;BME280;11754;42.664;23.594;2023-08-17T04:23:33;95467.34;;;18.84;78.60
23172;BME280;11754;42.664;23.594;2023-08-17T04:25:58;95477.81;;;18.85;78.45
23172;BME280;11754;42.664;23.594;2023-08-17T04:28:24;95478.00;;;18.90;78.33
23172;BME280;11754;42.664;23.594;2023-08-17T04:30:49;95460.91;;;18.91;77.99
23172;BME280;11754;42.664;23.594;2023-08-17T04:33:15;95480.28;;;19.12;77.12
23172;BME280;11754;42.664;23.594;2023-08-17T04:35:40;95483.72;;;19.19;76.90
23172;BME280;11754;42.664;23.594;2023-08-17T04:38:06;95486.47;;;19.31;76.55
23172;BME280;11754;42.664;23.594;2023-08-17T04:40:31;95486.00;;;19.40;75.95
23172;BME280;11754;42.664;23.594;2023-08-17T04:42:57;95473.13;;;19.49;75.75
23172;BME280;11754;42.664;23.594;2023-08-17T04:45:23;95475.88;;;19.61;75.07
23172;BME280;11754;42.664;23.594;2023-08-17T04:47:48;95476.44;;;19.70;74.22
23172;BME280;11754;42.664;23.594;2023-08-17T04:50:15;95461.03;;;19.65;73.91
23172;BME280;11754;42.664;23.594;2023-08-17T04:52:43;95468.03;;;19.84;73.72
23172;BME280;11754;42.664;23.594;2023-08-17T04:55:08;95470.28;;;19.87;73.51
23172;BME280;11754;42.664;23.594;2023-08-17T04:57:34;95470.84;;;19.89;73.12
23172;BME280;11754;42.664;23.594;2023-08-17T04:59:59;95475.88;;;19.98;73.20
23172;BME280;11754;42.664;23.594;2023-08-17T05:02:25;95473.09;;;19.92;73.11
23172;BME280;11754;42.664;23.594;2023-08-17T05:04:50;95475.88;;;19.98;72.73
23172;BME280;11754;42.664;23.594;2023-08-17T05:07:15;95472.56;;;20.02;72.29
23172;BME280;11754;42.664;23.594;2023-08-17T05:09:41;95474.31;;;20.08;71.79
23172;BME280;11754;42.664;23.594;2023-08-17T05:12:07;95479.75;;;20.20;71.80
23172;BME280;11754;42.664;23.594;2023-08-17T05:14:32;95476.75;;;20.28;71.83
23172;BME280;11754;42.664;23.594;2023-08-17T05:16:57;95472.56;;;20.32;71.99
23172;BME280;11754;42.664;23.594;2023-08-17T05:19:23;95469.56;;;20.40;71.90
23172;BME280;11754;42.664;23.594;2023-08-17T05:21:48;95475.94;;;20.58;71.80
23172;BME280;11754;42.664;23.594;2023-08-17T05:24:15;95468.88;;;20.63;70.55
23172;BME280;11754;42.664;23.594;2023-08-17T05:26:41;95456.84;;;20.66;70.46
23172;BME280;11754;42.664;23.594;2023-08-17T05:29:06;95470.19;;;20.84;70.66
23172;BME280;11754;42.664;23.594;2023-08-17T05:31:31;95475.13;;;20.99;70.24
23172;BME280;11754;42.664;23.594;2023-08-17T05:33:57;95474.88;;;21.01;70.71
23172;BME280;11754;42.664;23.594;2023-08-17T05:36:22;95473.84;;;21.14;71.02
23172;BME280;11754;42.664;23.594;2023-08-17T05:38:48;95475.47;;;21.26;71.00
23172;BME280;11754;42.664;23.594;2023-08-17T05:41:13;95474.13;;;21.35;71.46
23172;BME280;11754;42.664;23.594;2023-08-17T05:43:38;95472.84;;;21.50;71.28
23172;BME280;11754;42.664;23.594;2023-08-17T05:46:04;95475.84;;;21.65;71.11
23172;BME280;11754;42.664;23.594;2023-08-17T05:48:29;95474.53;;;21.79;70.74
23172;BME280;11754;42.664;23.594;2023-08-17T05:50:57;95465.19;;;21.82;71.01
23172;BME280;11754;42.664;23.594;2023-08-17T05:53:23;95467.84;;;21.94;71.40
23172;BME280;11754;42.664;23.594;2023-08-17T05:55:48;95471.78;;;22.03;71.23
23172;BME280;11754;42.664;23.594;2023-08-17T05:58:14;95466.19;;;22.16;71.02
23172;BME280;11754;42.664;23.594;2023-08-17T06:00:39;95470.69;;;22.27;70.74
23172;BME280;11754;42.664;23.594;2023-08-17T06:03:05;95472.75;;;22.37;70.44
23172;BME280;11754;42.664;23.594;2023-08-17T06:05:31;95476.34;;;22.43;70.59
23172;BME280;11754;42.664;23.594;2023-08-17T06:07:57;95471.97;;;22.53;70.34
23172;BME280;11754;42.664;23.594;2023-08-17T06:10:23;95465.91;;;22.58;70.43
23172;BME280;11754;42.664;23.594;2023-08-17T06:12:55;95469.41;;;22.75;70.52
23172;BME280;11754;42.664;23.594;2023-08-17T06:15:22;95473.91;;;22.87;70.26
23172;BME280;11754;42.664;23.594;2023-08-17T06:17:47;95475.50;;;22.99;70.11
23172;BME280;11754;42.664;23.594;2023-08-17T06:20:16;95471.72;;;23.00;69.96
23172;BME280;11754;42.664;23.594;2023-08-17T06:22:41;95466.84;;;23.14;69.77
23172;BME280;11754;42.664;23.594;2023-08-17T06:25:07;95469.97;;;23.23;69.52
23172;BME280;11754;42.664;23.594;2023-08-17T06:27:33;95472.88;;;23.38;69.12
23172;BME280;11754;42.664;23.594;2023-08-17T06:30:00;95465.81;;;23.54;68.89
23172;BME280;11754;42.664;23.594;2023-08-17T06:32:25;95464.03;;;23.77;67.86
23172;BME280;11754;42.664;23.594;2023-08-17T06:34:51;95479.75;;;23.85;68.11
23172;BME280;11754;42.664;23.594;2023-08-17T06:37:16;95470.66;;;23.91;67.63
23172;BME280;11754;42.664;23.594;2023-08-17T06:39:41;95468.16;;;24.06;67.14
23172;BME280;11754;42.664;23.594;2023-08-17T06:42:07;95460.28;;;24.27;66.58
23172;BME280;11754;42.664;23.594;2023-08-17T06:44:32;95473.53;;;24.50;66.22
23172;BME280;11754;42.664;23.594;2023-08-17T06:46:57;95474.47;;;24.61;64.26
23172;BME280;11754;42.664;23.594;2023-08-17T06:49:24;95471.88;;;24.71;64.10
23172;BME280;11754;42.664;23.594;2023-08-17T06:51:50;95456.09;;;24.85;64.58
23172;BME280;11754;42.664;23.594;2023-08-17T06:54:15;95459.44;;;25.02;63.52
23172;BME280;11754;42.664;23.594;2023-08-17T06:56:40;95474.75;;;25.24;62.93
23172;BME280;11754;42.664;23.594;2023-08-17T06:59:06;95473.81;;;25.40;61.97
23172;BME280;11754;42.664;23.594;2023-08-17T07:01:32;95463.31;;;25.49;60.71
23172;BME280;11754;42.664;23.594;2023-08-17T07:03:57;95453.41;;;25.59;59.70
23172;BME280;11754;42.664;23.594;2023-08-17T07:06:24;95463.47;;;25.69;54.53
23172;BME280;11754;42.664;23.594;2023-08-17T07:08:49;95467.34;;;25.88;55.45
23172;BME280;11754;42.664;23.594;2023-08-17T07:11:15;95471.50;;;26.01;52.93
23172;BME280;11754;42.664;23.594;2023-08-17T07:13:40;95461.81;;;26.21;48.97
23172;BME280;11754;42.664;23.594;2023-08-17T07:16:05;95454.81;;;26.25;46.72
23172;BME280;11754;42.664;23.594;2023-08-17T07:18:31;95464.66;;;26.51;48.10
23172;BME280;11754;42.664;23.594;2023-08-17T07:20:56;95462.50;;;26.64;47.69
23172;BME280;11754;42.664;23.594;2023-08-17T07:23:22;95459.28;;;26.72;45.22
23172;BME280;11754;42.664;23.594;2023-08-17T07:25:48;95462.56;;;27.04;44.89
23172;BME280;11754;42.664;23.594;2023-08-17T07:28:14;95443.13;;;27.13;44.57
23172;BME280;11754;42.664;23.594;2023-08-17T07:30:40;95463.69;;;27.24;46.00
23172;BME280;11754;42.664;23.594;2023-08-17T07:33:06;95460.41;;;27.37;45.66
23172;BME280;11754;42.664;23.594;2023-08-17T07:35:31;95456.31;;;27.55;45.67
23172;BME280;11754;42.664;23.594;2023-08-17T07:37:56;95458.22;;;27.54;45.83
23172;BME280;11754;42.664;23.594;2023-08-17T07:40:22;95446.28;;;27.66;46.45
23172;BME280;11754;42.664;23.594;2023-08-17T07:42:47;95454.41;;;27.71;47.09
23172;BME280;11754;42.664;23.594;2023-08-17T07:45:13;95444.59;;;27.90;44.64
23172;BME280;11754;42.664;23.594;2023-08-17T07:47:38;95459.22;;;27.94;44.88
23172;BME280;11754;42.664;23.594;2023-08-17T07:50:05;95453.19;;;28.13;44.63
23172;BME280;11754;42.664;23.594;2023-08-17T07:52:31;95451.50;;;28.27;43.51
23172;BME280;11754;42.664;23.594;2023-08-17T07:54:56;95451.44;;;28.37;42.75
23172;BME280;11754;42.664;23.594;2023-08-17T07:57:22;95449.78;;;28.52;44.79
23172;BME280;11754;42.664;23.594;2023-08-17T07:59:47;95449.19;;;28.60;43.54
23172;BME280;11754;42.664;23.594;2023-08-17T08:02:13;95429.06;;;28.71;42.50
23172;BME280;11754;42.664;23.594;2023-08-17T08:04:38;95417.53;;;28.84;42.02
23172;BME280;11754;42.664;23.594;2023-08-17T08:07:04;95430.13;;;29.09;41.71
23172;BME280;11754;42.664;23.594;2023-08-17T08:09:29;95442.19;;;29.27;41.35
23172;BME280;11754;42.664;23.594;2023-08-17T08:11:55;95437.06;;;29.26;41.79
23172;BME280;11754;42.664;23.594;2023-08-17T08:14:20;95431.09;;;29.53;40.55
23172;BME280;11754;42.664;23.594;2023-08-17T08:16:45;95430.38;;;29.71;41.09
23172;BME280;11754;42.664;23.594;2023-08-17T08:19:12;95428.59;;;29.85;39.78
23172;BME280;11754;42.664;23.594;2023-08-17T08:21:37;95413.28;;;29.95;39.45
23172;BME280;11754;42.664;23.594;2023-08-17T08:24:03;95413.22;;;30.24;39.31
23172;BME280;11754;42.664;23.594;2023-08-17T08:26:28;95420.56;;;30.61;37.61
23172;BME280;11754;42.664;23.594;2023-08-17T08:28:53;95415.88;;;30.67;37.88
23172;BME280;11754;42.664;23.594;2023-08-17T08:31:19;95416.16;;;30.65;37.85
23172;BME280;11754;42.664;23.594;2023-08-17T08:33:44;95415.72;;;30.96;37.14
23172;BME280;11754;42.664;23.594;2023-08-17T08:36:10;95410.88;;;30.55;38.22
23172;BME280;11754;42.664;23.594;2023-08-17T08:38:35;95416.03;;;30.75;37.68
23172;BME280;11754;42.664;23.594;2023-08-17T08:41:01;95415.13;;;30.99;38.45
23172;BME280;11754;42.664;23.594;2023-08-17T08:43:27;95412.47;;;31.13;36.43
23172;BME280;11754;42.664;23.594;2023-08-17T08:45:54;95410.72;;;31.35;35.81
23172;BME280;11754;42.664;23.594;2023-08-17T08:48:22;95406.22;;;31.72;35.78
23172;BME280;11754;42.664;23.594;2023-08-17T08:50:50;95407.06;;;31.87;35.09
23172;BME280;11754;42.664;23.594;2023-08-17T08:53:17;95406.75;;;32.02;32.53
23172;BME280;11754;42.664;23.594;2023-08-17T08:55:56;95425.25;;;32.05;31.47
23172;BME280;11754;42.664;23.594;2023-08-17T08:58:24;95414.94;;;32.02;31.06
23172;BME280;11754;42.664;23.594;2023-08-17T09:00:50;95414.13;;;32.15;30.31
23172;BME280;11754;42.664;23.594;2023-08-17T09:03:16;95408.16;;;32.13;29.73
23172;BME280;11754;42.664;23.594;2023-08-17T09:05:49;95404.53;;;32.32;30.35
23172;BME280;11754;42.664;23.594;2023-08-17T09:08:15;95397.00;;;32.37;32.86
23172;BME280;11754;42.664;23.594;2023-08-17T09:10:41;95387.56;;;32.93;33.27
23172;BME280;11754;42.664;23.594;2023-08-17T09:13:07;95392.41;;;33.72;31.65
23172;BME280;11754;42.664;23.594;2023-08-17T09:15:33;95383.88;;;33.83;28.73
23172;BME280;11754;42.664;23.594;2023-08-17T09:17:59;95370.16;;;34.05;29.40
23172;BME280;11754;42.664;23.594;2023-08-17T09:20:38;95390.38;;;33.87;30.95
23172;BME280;11754;42.664;23.594;2023-08-17T09:23:04;95372.69;;;34.67;28.93
23172;BME280;11754;42.664;23.594;2023-08-17T09:25:31;95378.63;;;34.87;29.04
23172;BME280;11754;42.664;23.594;2023-08-17T09:27:57;95370.75;;;34.85;26.45
23172;BME280;11754;42.664;23.594;2023-08-17T09:30:23;95375.34;;;35.37;26.33
23172;BME280;11754;42.664;23.594;2023-08-17T09:32:48;95378.00;;;35.72;26.10
23172;BME280;11754;42.664;23.594;2023-08-17T09:35:14;95367.69;;;36.07;25.51
23172;BME280;11754;42.664;23.594;2023-08-17T09:37:40;95366.47;;;36.46;25.73
23172;BME280;11754;42.664;23.594;2023-08-17T09:40:06;95351.94;;;36.67;25.57
23172;BME280;11754;42.664;23.594;2023-08-17T09:42:34;95355.50;;;37.79;24.92
23172;BME280;11754;42.664;23.594;2023-08-17T09:45:00;95344.16;;;38.42;23.02
23172;BME280;11754;42.664;23.594;2023-08-17T09:47:26;95349.97;;;40.48;21.23
23172;BME280;11754;42.664;23.594;2023-08-17T09:49:52;95339.00;;;41.71;19.67
23172;BME280;11754;42.664;23.594;2023-08-17T09:52:19;95342.53;;;42.44;19.28
23172;BME280;11754;42.664;23.594;2023-08-17T09:54:45;95326.84;;;44.64;17.33
23172;BME280;11754;42.664;23.594;2023-08-17T09:57:13;95324.81;;;46.23;15.69
23172;BME280;11754;42.664;23.594;2023-08-17T09:59:38;95321.19;;;47.98;15.17
23172;BME280;11754;42.664;23.594;2023-08-17T10:02:10;95325.94;;;49.72;13.91
23172;BME280;11754;42.664;23.594;2023-08-17T10:04:39;95299.22;;;51.54;13.89
23172;BME280;11754;42.664;23.594;2023-08-17T10:07:06;95304.13;;;53.32;13.21
23172;BME280;11754;42.664;23.594;2023-08-17T10:09:43;95306.16;;;55.09;11.92
23172;BME280;11754;42.664;23.594;2023-08-17T10:12:15;95302.19;;;56.73;10.41
23172;BME280;11754;42.664;23.594;2023-08-17T10:14:46;95292.63;;;56.80;9.62
23172;BME280;11754;42.664;23.594;2023-08-17T10:17:15;95293.00;;;57.06;9.97
23172;BME280;11754;42.664;23.594;2023-08-17T10:19:52;95302.22;;;58.34;9.23
23172;BME280;11754;42.664;23.594;2023-08-17T10:22:27;95292.06;;;58.18;9.77
23172;BME280;11754;42.664;23.594;2023-08-17T10:27:42;95278.34;;;60.29;8.48
23172;BME280;11754;42.664;23.594;2023-08-17T10:30:10;95272.91;;;61.67;7.86
23172;BME280;11754;42.664;23.594;2023-08-17T10:32:41;95275.19;;;61.95;7.78
23172;BME280;11754;42.664;23.594;2023-08-17T10:35:10;95275.06;;;62.32;7.70
23172;BME280;11754;42.664;23.594;2023-08-17T10:37:38;95276.06;;;62.95;7.51
23172;BME280;11754;42.664;23.594;2023-08-17T10:40:04;95273.06;;;64.18;6.53
23172;BME280;11754;42.664;23.594;2023-08-17T10:42:34;95263.84;;;62.94;7.07
23172;BME280;11754;42.664;23.594;2023-08-17T10:45:00;95271.91;;;64.44;6.38
23172;BME280;11754;42.664;23.594;2023-08-17T10:47:32;95262.78;;;63.59;7.10
23172;BME280;11754;42.664;23.594;2023-08-17T10:50:22;95264.44;;;64.76;6.52
23172;BME280;11754;42.664;23.594;2023-08-17T10:52:49;95258.66;;;65.48;6.61
23172;BME280;11754;42.664;23.594;2023-08-17T10:55:16;95259.22;;;66.77;5.88
23172;BME280;11754;42.664;23.594;2023-08-17T10:57:42;95253.06;;;67.18;5.53
23172;BME280;11754;42.664;23.594;2023-08-17T11:00:22;95235.75;;;64.76;6.32
23172;BME280;11754;42.664;23.594;2023-08-17T11:03:07;95231.38;;;61.61;7.66
23172;BME280;11754;42.664;23.594;2023-08-17T11:08:20;95226.78;;;64.03;6.09
23172;BME280;11754;42.664;23.594;2023-08-17T11:11:05;95218.59;;;64.35;6.29
23172;BME280;11754;42.664;23.594;2023-08-17T11:13:36;95226.41;;;64.70;6.51
23172;BME280;11754;42.664;23.594;2023-08-17T11:16:03;95217.44;;;65.51;5.99
23172;BME280;11754;42.664;23.594;2023-08-17T11:18:28;95222.81;;;66.98;5.15
23172;BME280;11754;42.664;23.594;2023-08-17T11:20:55;95227.38;;;67.66;5.11
23172;BME280;11754;42.664;23.594;2023-08-17T11:23:20;95216.00;;;66.82;6.12
23172;BME280;11754;42.664;23.594;2023-08-17T11:25:47;95214.94;;;65.12;5.71
23172;BME280;11754;42.664;23.594;2023-08-17T11:28:16;95192.84;;;65.56;5.47
23172;BME280;11754;42.664;23.594;2023-08-17T11:30:42;95214.91;;;67.18;4.93
23172;BME280;11754;42.664;23.594;2023-08-17T11:33:08;95219.59;;;68.27;4.74
23172;BME280;11754;42.664;23.594;2023-08-17T11:35:35;95213.19;;;69.31;4.75
23172;BME280;11754;42.664;23.594;2023-08-17T11:38:01;95211.88;;;69.61;4.40
23172;BME280;11754;42.664;23.594;2023-08-17T11:40:26;95216.00;;;70.02;4.67
23172;BME280;11754;42.664;23.594;2023-08-17T11:42:52;95205.00;;;69.72;4.53
23172;BME280;11754;42.664;23.594;2023-08-17T11:45:18;95200.22;;;69.46;4.35
23172;BME280;11754;42.664;23.594;2023-08-17T11:47:44;95197.72;;;68.79;4.47
23172;BME280;11754;42.664;23.594;2023-08-17T11:50:11;95191.84;;;69.92;4.29
23172;BME280;11754;42.664;23.594;2023-08-17T11:52:40;95183.81;;;68.36;4.94
23172;BME280;11754;42.664;23.594;2023-08-17T11:55:07;95187.75;;;66.30;5.31
23172;BME280;11754;42.664;23.594;2023-08-17T11:57:33;95188.00;;;66.70;5.78
23172;BME280;11754;42.664;23.594;2023-08-17T12:00:00;95192.16;;;67.46;5.43
23172;BME280;11754;42.664;23.594;2023-08-17T12:02:27;95175.97;;;66.52;6.21
23172;BME280;11754;42.664;23.594;2023-08-17T12:04:54;95182.41;;;67.36;5.65
23172;BME280;11754;42.664;23.594;2023-08-17T12:07:21;95190.19;;;67.68;5.40
23172;BME280;11754;42.664;23.594;2023-08-17T12:09:47;95197.88;;;66.55;6.08
23172;BME280;11754;42.664;23.594;2023-08-17T12:12:26;95176.22;;;65.73;6.10
23172;BME280;11754;42.664;23.594;2023-08-17T12:14:57;95182.69;;;67.78;5.62
23172;BME280;11754;42.664;23.594;2023-08-17T12:17:22;95183.09;;;69.19;4.90
23172;BME280;11754;42.664;23.594;2023-08-17T12:19:54;95185.78;;;69.74;4.57
23172;BME280;11754;42.664;23.594;2023-08-17T12:22:23;95178.84;;;70.06;4.69
23172;BME280;11754;42.664;23.594;2023-08-17T12:24:49;95176.66;;;69.99;4.74
23172;BME280;11754;42.664;23.594;2023-08-17T12:27:14;95171.50;;;67.74;5.31
23172;BME280;11754;42.664;23.594;2023-08-17T12:29:47;95165.94;;;68.24;4.71
23172;BME280;11754;42.664;23.594;2023-08-17T12:32:17;95167.59;;;68.67;5.15
23172;BME280;11754;42.664;23.594;2023-08-17T12:34:42;95172.66;;;69.65;4.72
23172;BME280;11754;42.664;23.594;2023-08-17T12:37:09;95169.66;;;68.45;4.71
23172;BME280;11754;42.664;23.594;2023-08-17T12:39:35;95166.06;;;68.66;4.49
23172;BME280;11754;42.664;23.594;2023-08-17T12:42:01;95166.19;;;69.23;4.35
23172;BME280;11754;42.664;23.594;2023-08-17T12:44:29;95168.44;;;68.75;4.19
23172;BME280;11754;42.664;23.594;2023-08-17T12:46:55;95160.94;;;69.42;4.87
23172;BME280;11754;42.664;23.594;2023-08-17T12:49:20;95169.97;;;69.75;4.61
23172;BME280;11754;42.664;23.594;2023-08-17T12:51:46;95160.38;;;69.15;4.52
23172;BME280;11754;42.664;23.594;2023-08-17T12:54:11;95155.78;;;69.49;4.53
23172;BME280;11754;42.664;23.594;2023-08-17T12:56:36;95161.63;;;69.93;4.29